Waimanalo, HI (96795)

10:08 PM HST on February 10, 2016 (GMT -1000)
Enchanted Lakes | | Change Station
CLOSE
Current Station
Personal Weather Station
Location: Kailua, HI
Elevation: 16 ft
Nearby Weather Stations

Elev 16 ft 21.38 °N, 157.73 °W | Updated 36 seconds ago

Scattered Clouds
Scattered Clouds
66.4 °F
Feels Like 66.4 °F
N
0.0
Wind Variable Wind from West

Today
High -- | Low -- °F
--% Chance of Precip.
Yesterday
High -- | Low -- °F
Precip. -- in
Pressure 30.04 in
Visibility 7.0 miles
Clouds Scattered Clouds 3200 ft
Dew Point 62 °F
Humidity 87%
Rainfall 0.00 in
Snow Depth Not available.
7:04 AM 6:26 PM
Waxing Crescent, 10% visible
METAR PHNG 110757Z 05005KT 7SM SCT032 22/16 A3005 RMK AO2 SLP170 T02220161 $
Pressure 30.04 in
Visibility 7.0 miles
Clouds Scattered Clouds 3200 ft
Dew Point 62 °F
Humidity 87%
Rainfall 0.00 in
Snow Depth Not available.
7:04 AM 6:26 PM
Waxing Crescent, 10% visible
METAR PHNG 110757Z 05005KT 7SM SCT032 22/16 A3005 RMK AO2 SLP170 T02220161 $

10-Day Weather Forecast

Almanac

Astronomy

Feb. 10, 2016 Rise Set
Actual Time
Civil Twilight
Nautical Twilight
Astronomical Twilight
Moon
Length of Visible Light
Length of Day
Tomorrow will be .
, % of the Moon is Illuminated

Today's Extremes

State Highs State Lows

Community

WunderPhotos

Upload Photos

1,892,030 photos uploaded!

WunderBlog® & News

Nearby

Air Quality

  Air Quality AQ Index Pollutant
Not available.

Snow Depth

Station Depth Elevation

Earthquake Activity

City Distance Mag. Time & Date
Minimum magnitude displayed is 2.5.

Coastal Water Temperatures

Place Temperature

Stations

Nearby Weather Stations

Station Location Temp. Windchill Dew Point Humidity Wind Precip. Elev Updated Type
                   

Watches & Warnings

There are currently no watches in effect.